createdAt,value
2018-04-18T00:00:11.525Z,11.30
2018-04-18T00:06:15.933Z,11.10
2018-04-18T00:12:20.306Z,9.83
2018-04-18T00:18:24.700Z,11.03
2018-04-18T00:24:29.114Z,10.73
2018-04-18T00:30:33.499Z,12.10
2018-04-18T00:36:37.911Z,11.93
2018-04-18T00:42:42.858Z,11.33
2018-04-18T00:48:47.308Z,12.00
2018-04-18T00:54:51.691Z,12.87
2018-04-18T01:00:56.080Z,13.33
2018-04-18T01:07:00.550Z,13.20
2018-04-18T01:13:04.928Z,14.20
2018-04-18T01:19:09.446Z,15.27
2018-04-18T01:25:14.676Z,16.13
2018-04-18T01:31:19.894Z,15.07
2018-04-18T01:37:24.265Z,15.23
2018-04-18T01:43:28.631Z,16.83
2018-04-18T01:49:33.771Z,18.10
2018-04-18T01:55:38.139Z,18.40
2018-04-18T02:01:42.547Z,18.77
2018-04-18T02:07:46.927Z,18.20
2018-04-18T02:13:51.324Z,19.63
2018-04-18T02:19:56.638Z,18.80
2018-04-18T02:26:01.007Z,18.43
2018-04-18T02:32:05.389Z,18.00
2018-04-18T02:38:10.287Z,18.37
2018-04-18T02:44:14.762Z,20.10
2018-04-18T02:50:19.142Z,19.50
2018-04-18T02:56:23.502Z,20.90
2018-04-18T03:02:27.979Z,21.23
2018-04-18T03:08:33.178Z,20.97
2018-04-18T03:14:37.576Z,20.73
2018-04-18T03:20:43.475Z,20.87
2018-04-18T03:26:47.855Z,19.70
2018-04-18T03:32:52.228Z,20.13
2018-04-18T03:38:56.680Z,19.97
2018-04-18T03:45:01.056Z,20.43
2018-04-18T03:51:05.546Z,19.80
2018-04-18T03:57:10.536Z,20.83
2018-04-18T04:03:15.096Z,21.70
2018-04-18T04:09:19.478Z,19.77
2018-04-18T04:15:23.872Z,21.20
2018-04-18T04:28:12.632Z,21.90
2018-04-18T04:34:17.022Z,24.63
2018-04-18T04:40:21.430Z,24.03
2018-04-18T04:46:25.826Z,24.10
2018-04-18T04:52:30.990Z,27.20
2018-04-18T04:58:35.379Z,22.23
2018-04-18T05:04:40.037Z,20.37
2018-04-18T05:10:44.530Z,15.40
2018-04-18T05:16:48.966Z,14.47
2018-04-18T05:22:53.383Z,17.27
2018-04-18T05:28:57.826Z,16.20
2018-04-18T05:35:02.235Z,17.23
2018-04-18T05:41:06.696Z,17.90
2018-04-18T05:47:11.398Z,18.23
2018-04-18T05:53:15.936Z,15.90
2018-04-18T05:59:20.354Z,16.53
2018-04-18T06:05:24.807Z,18.23
2018-04-18T06:11:29.276Z,16.60
2018-04-18T06:17:33.692Z,17.83
2018-04-18T06:23:38.865Z,17.17
2018-04-18T06:29:43.301Z,17.07
2018-04-18T06:35:47.714Z,17.07
2018-04-18T06:41:52.108Z,28.40
2018-04-18T06:47:57.422Z,30.40
2018-04-18T06:54:02.663Z,26.70
2018-04-18T07:00:07.076Z,27.13
2018-04-18T07:06:11.515Z,28.93
2018-04-18T07:12:19.148Z,30.87
2018-04-18T07:18:36.377Z,26.43
2018-04-18T07:41:00.175Z,26.10
2018-04-18T07:53:43.894Z,25.80
2018-04-18T07:59:54.427Z,26.93
2018-04-18T08:06:25.001Z,25.00
2018-04-18T08:38:52.677Z,30.70
2018-04-18T08:45:11.414Z,29.33
2018-04-18T08:51:41.770Z,27.33
2018-04-18T09:07:46.501Z,23.10
2018-04-18T09:14:11.253Z,22.33
2018-04-18T09:43:08.629Z,21.60
2018-04-18T09:49:27.820Z,19.90
2018-04-18T09:55:50.667Z,21.37
2018-04-18T10:15:49.130Z,17.90
2018-04-18T10:42:13.855Z,17.97
2018-04-18T10:48:18.224Z,16.93
2018-04-18T10:54:22.591Z,16.10
2018-04-18T11:00:26.965Z,16.57
2018-04-18T11:06:31.350Z,16.30
2018-04-18T11:12:35.764Z,16.57
2018-04-18T11:18:40.888Z,15.20
2018-04-18T11:24:45.386Z,10.93
2018-04-18T11:30:49.757Z,12.40
2018-04-18T11:36:54.923Z,11.50
2018-04-18T11:42:59.335Z,10.67
2018-04-18T11:49:03.705Z,12.30
2018-04-18T11:55:08.129Z,11.40
2018-04-18T12:01:12.752Z,9.30
2018-04-18T12:07:17.906Z,11.60
2018-04-18T12:13:22.277Z,8.40
2018-04-18T12:19:26.666Z,9.90
2018-04-18T12:25:31.903Z,7.67
2018-04-18T12:31:36.395Z,5.80
2018-04-18T12:37:41.040Z,5.70
2018-04-18T12:43:45.487Z,7.70
2018-04-18T12:49:49.835Z,7.00
2018-04-18T12:55:54.980Z,6.70
2018-04-18T13:02:00.168Z,6.73
2018-04-18T13:08:04.594Z,6.20
2018-04-18T13:14:08.965Z,7.20
2018-04-18T13:20:13.709Z,6.63
2018-04-18T13:26:18.859Z,7.13
2018-04-18T13:32:23.233Z,7.00
2018-04-18T13:38:27.594Z,7.03
2018-04-18T13:44:32.061Z,5.37
2018-04-18T13:50:36.426Z,6.43
2018-04-18T13:56:41.583Z,6.37
2018-04-18T14:02:45.999Z,5.53
2018-04-18T14:08:50.617Z,5.00
2018-04-18T14:14:54.985Z,5.37
2018-04-18T14:20:59.346Z,3.83
2018-04-18T14:27:03.726Z,4.80
2018-04-18T14:33:08.177Z,3.80
2018-04-18T14:39:12.547Z,6.00
2018-04-18T14:45:17.687Z,7.00
2018-04-18T14:51:22.950Z,5.90
2018-04-18T14:57:27.318Z,6.70
2018-04-18T15:03:31.693Z,6.07
2018-04-18T15:09:36.069Z,6.07
2018-04-18T15:15:41.710Z,5.67
2018-04-18T15:21:46.094Z,6.37
2018-04-18T15:27:50.448Z,6.43
2018-04-18T15:33:54.851Z,5.17
2018-04-18T15:39:59.290Z,5.40
2018-04-18T15:46:03.639Z,5.60
2018-04-18T15:52:08.019Z,4.77
2018-04-18T15:58:12.652Z,4.90
2018-04-18T16:04:17.055Z,4.70
2018-04-18T16:10:22.203Z,3.83
2018-04-18T16:16:26.569Z,4.40
2018-04-18T16:22:30.943Z,3.93
2018-04-18T16:28:35.339Z,4.07
2018-04-18T16:34:39.836Z,3.17
2018-04-18T16:40:45.087Z,3.10
2018-04-18T16:46:49.546Z,2.70
2018-04-18T16:52:53.959Z,2.60
2018-04-18T16:58:58.456Z,2.70
2018-04-18T17:05:02.826Z,3.20
2018-04-18T17:11:07.255Z,2.53
2018-04-18T17:17:11.930Z,2.50
2018-04-18T17:23:16.412Z,2.50
2018-04-18T17:29:21.540Z,3.60
2018-04-18T17:35:26.304Z,3.30
2018-04-18T17:41:30.763Z,3.50
2018-04-18T17:47:35.126Z,4.00
2018-04-18T17:53:40.267Z,3.70
2018-04-18T17:59:44.641Z,4.20
2018-04-18T18:05:49.088Z,4.60
2018-04-18T18:11:53.443Z,4.60
2018-04-18T18:17:58.593Z,3.97
2018-04-18T18:24:03.014Z,4.63
2018-04-18T18:30:07.400Z,4.10
2018-04-18T18:36:11.979Z,5.47
2018-04-18T18:42:16.350Z,6.27
2018-04-18T18:48:20.719Z,6.43
2018-04-18T18:54:25.087Z,6.90
2018-04-18T19:00:30.223Z,6.60
2018-04-18T19:06:34.665Z,5.83
2018-04-18T19:12:39.883Z,8.63
2018-04-18T19:18:45.797Z,8.67
2018-04-18T19:24:50.172Z,9.10
2018-04-18T19:30:54.535Z,9.47
2018-04-18T19:36:58.917Z,9.20
2018-04-18T19:43:03.278Z,8.67
2018-04-18T19:49:07.667Z,10.13
2018-04-18T19:55:12.173Z,9.57
2018-04-18T20:01:16.694Z,10.13
2018-04-18T20:07:21.114Z,8.63
2018-04-18T20:13:25.495Z,8.00
2018-04-18T20:19:29.938Z,9.40
2018-04-18T20:25:34.315Z,9.10
2018-04-18T20:31:38.911Z,10.00
2018-04-18T20:37:44.374Z,12.30
2018-04-18T20:43:48.882Z,9.60
2018-04-18T20:49:53.386Z,10.17
2018-04-18T20:55:57.764Z,11.63
2018-04-18T21:02:02.127Z,9.60
2018-04-18T21:08:06.500Z,12.73
2018-04-18T21:14:10.976Z,13.77
2018-04-18T21:20:15.606Z,13.60
2018-04-18T21:26:20.764Z,12.57
2018-04-18T21:32:25.144Z,11.83
2018-04-18T21:38:29.583Z,12.93
2018-04-18T21:44:34.696Z,13.90
2018-04-18T21:50:39.093Z,13.10
2018-04-18T21:56:43.551Z,13.50
2018-04-18T22:02:48.036Z,13.27
2018-04-18T22:08:52.450Z,13.37
2018-04-18T22:14:57.595Z,12.20
2018-04-18T22:21:02.039Z,13.23
2018-04-18T22:27:06.440Z,13.63
2018-04-18T22:33:10.828Z,14.37
2018-04-18T22:39:15.406Z,13.93
2018-04-18T22:45:19.804Z,13.50
2018-04-18T22:51:24.213Z,14.13
2018-04-18T22:57:28.620Z,14.83
2018-04-18T23:03:33.000Z,16.50
2018-04-18T23:09:37.381Z,15.23
2018-04-18T23:15:42.411Z,15.70
2018-04-18T23:21:46.929Z,15.60
2018-04-18T23:27:51.354Z,18.40
2018-04-18T23:33:55.715Z,17.93
2018-04-18T23:40:00.083Z,21.20
2018-04-18T23:46:04.515Z,19.90
2018-04-18T23:52:08.999Z,20.83
2018-04-18T23:58:13.376Z,19.97
